Gove Airport
YPGV : now visible

Airfield :











YOU CAN JOIN US ON...

 
LOGIN :

Register | Disclaimer

   EN    FR    IT 

 









Legend :    VFR   Marginal VFR   IFR   Intensive IFR   Very Intensive IFR
Visi :
Ceiling :
>= 8 km
>= 3000ft
5 to 8 km
1000 to 3000 ft
1500m to 5 km
500 to 1000 ft
800 to 1500m
200 to 500 ft
< 800m
< 200 ft
Symbols :   Thunderstorms  Fog  Heavy snow  Heavy precipitations  Wind > 20 kt






- Airport Elevation : 192 ft
- IATA code : GOV


YPGV - Gove

CURRENT METAR :
  • 280730Z AUTO 12013KT 9999 // SCT032 SCT039 SCT049 28/20 Q1010

EXPIRED METARs :
  • 280700Z AUTO 13012KT 9999 // SCT033 BKN039 BKN047 28/20 Q1010
  • 280630Z AUTO 12015KT 9999 // BKN032 29/20 Q1010 RF00.0/000.0
  • 280600Z AUTO 13013KT 9999 // SCT032 SCT041 BKN047 29/20 Q1010
  • 280530Z AUTO 12014KT 9999 // SCT034 SCT049 30/20 Q1010
  • 280500Z AUTO 12016KT 9999 // SCT035 BKN047 30/20 Q1010

TAF TAF YPGV
Valid from the 28 at 08:00 until the 28 at 20:00 UTC


280601Z 2808/2820 12014KT 9999 SCT030
FM281000 14007KT 9999 SCT025
YBBB FIR / Oceania



MET'MAP, your aeronautical weather chart ! - Copyright ORBIFLY December 2007 - Disclaimer

ORBIFLY MET'MAP TEAM :

Programming & Development : Alexandra Zaïnal
Original concept : Baudouin d'Aumeries
Technical & hardware support : Manuel Goepfert
Assistance : Marc-Olivier Méhu

Contact : metmap@orbifly.com




SOURCES & CREDITS :

   NOAA       Earth
Advisory